createdAt,value
2018-09-25T00:02:32.745Z,7.87
2018-09-25T00:05:06.732Z,3.83
2018-09-25T00:07:40.684Z,4.27
2018-09-25T00:10:14.503Z,2.73
2018-09-25T00:12:48.406Z,3.87
2018-09-25T00:15:22.523Z,3.90
2018-09-25T00:17:56.206Z,3.73
2018-09-25T00:20:30.176Z,4.17
2018-09-25T00:23:04.238Z,8.30
2018-09-25T00:25:38.006Z,4.77
2018-09-25T00:28:12.173Z,7.83
2018-09-25T00:30:46.231Z,5.23
2018-09-25T00:33:19.933Z,4.93
2018-09-25T00:35:53.755Z,6.37
2018-09-25T00:38:27.610Z,5.20
2018-09-25T00:41:01.945Z,4.10
2018-09-25T00:43:35.787Z,8.37
2018-09-25T00:46:09.784Z,6.17
2018-09-25T00:48:43.500Z,5.63
2018-09-25T00:51:17.364Z,3.13
2018-09-25T00:53:51.340Z,3.47
2018-09-25T00:56:25.383Z,4.77
2018-09-25T00:58:59.161Z,4.63
2018-09-25T01:01:32.981Z,4.90
2018-09-25T01:04:06.737Z,5.23
2018-09-25T01:06:40.578Z,7.20
2018-09-25T01:09:14.971Z,3.47
2018-09-25T03:56:02.760Z,5.37
2018-09-25T03:58:42.939Z,9.67
2018-09-25T04:01:16.612Z,7.13
2018-09-25T04:03:50.875Z,7.37
2018-09-25T04:06:24.733Z,6.97
2018-09-25T04:08:58.733Z,8.67
2018-09-25T04:11:32.889Z,7.97
2018-09-25T04:14:06.666Z,6.97
2018-09-25T04:16:40.941Z,7.50
2018-09-25T04:19:15.030Z,6.13
2018-09-25T04:21:48.908Z,6.07
2018-09-25T04:24:22.775Z,7.53
2018-09-25T04:26:56.679Z,6.20
2018-09-25T04:29:30.645Z,8.20
2018-09-25T04:32:05.035Z,6.17
2018-09-25T04:34:38.813Z,6.80
2018-09-25T04:37:12.781Z,5.40
2018-09-25T04:39:47.107Z,5.73
2018-09-25T04:42:21.948Z,8.63
2018-09-25T04:44:56.036Z,9.30
2018-09-25T04:47:30.468Z,7.87
2018-09-25T04:50:04.451Z,8.43
2018-09-25T04:52:38.718Z,9.40
2018-09-25T04:55:12.859Z,9.27
2018-09-25T04:57:46.754Z,8.97
2018-09-25T05:00:20.693Z,7.67
2018-09-25T05:02:54.452Z,7.77
2018-09-25T05:05:28.498Z,9.77
2018-09-25T05:08:02.441Z,7.10
2018-09-25T05:10:36.419Z,10.10
2018-09-25T05:13:10.578Z,10.03
2018-09-25T05:15:44.966Z,12.47
2018-09-25T05:18:18.735Z,11.27
2018-09-25T05:20:52.928Z,10.10
2018-09-25T05:23:26.943Z,11.23
2018-09-25T05:26:00.860Z,12.73
2018-09-25T05:28:34.917Z,6.17
2018-09-25T05:31:08.923Z,8.87
2018-09-25T05:33:42.690Z,8.00
2018-09-25T05:36:16.503Z,12.43
2018-09-25T05:38:50.439Z,9.97
2018-09-25T05:41:24.461Z,16.53
2018-09-25T05:43:58.673Z,11.70
2018-09-25T05:46:33.665Z,14.33
2018-09-25T05:49:07.550Z,26.43
2018-09-25T05:51:41.633Z,36.83
2018-09-25T05:54:15.536Z,36.90
2018-09-25T05:56:49.445Z,32.77
2018-09-25T05:59:23.220Z,15.20
2018-09-25T06:01:57.322Z,12.43
2018-09-25T06:04:31.464Z,9.73
2018-09-25T06:07:05.451Z,4.10
2018-09-25T06:09:39.774Z,4.20
2018-09-25T06:12:13.733Z,4.93
2018-09-25T06:14:47.790Z,7.20
2018-09-25T06:17:21.909Z,2.77
2018-09-25T06:19:56.830Z,5.27
2018-09-25T06:22:31.379Z,3.23
2018-09-25T06:25:05.729Z,6.77
2018-09-25T06:27:39.860Z,3.50
2018-09-25T06:30:13.699Z,3.20
2018-09-25T06:32:47.662Z,3.83
2018-09-25T06:35:21.809Z,5.23
2018-09-25T06:37:55.817Z,4.17
2018-09-25T06:40:30.226Z,4.53
2018-09-25T06:43:04.280Z,3.00
2018-09-25T06:45:38.584Z,4.40
2018-09-25T06:48:12.593Z,3.90
2018-09-25T06:50:46.524Z,5.17
2018-09-25T06:53:20.632Z,4.80
2018-09-25T06:55:54.470Z,4.70
2018-09-25T06:58:28.526Z,5.37
2018-09-25T07:01:02.580Z,5.17
2018-09-25T07:03:36.686Z,5.37
2018-09-25T07:06:10.569Z,4.63
2018-09-25T07:08:44.339Z,5.37
2018-09-25T07:11:18.207Z,4.37
2018-09-25T07:13:52.363Z,6.40
2018-09-25T07:16:26.442Z,3.67
2018-09-25T07:19:00.242Z,5.70
2018-09-25T07:21:34.455Z,3.77
2018-09-25T07:24:08.222Z,4.70
2018-09-25T07:26:42.039Z,4.77
2018-09-25T07:29:15.817Z,5.00
2018-09-25T07:31:49.609Z,5.30
2018-09-25T07:34:23.565Z,4.07
2018-09-25T07:40:00.932Z,4.73
2018-09-25T07:42:34.895Z,5.60
2018-09-25T07:45:08.934Z,4.47
2018-09-25T07:47:42.711Z,5.20
2018-09-25T07:50:16.977Z,5.77
2018-09-25T07:52:50.884Z,4.23
2018-09-25T07:55:24.568Z,4.00
2018-09-25T07:57:58.496Z,5.00
2018-09-25T08:00:32.645Z,5.43
2018-09-25T08:03:06.511Z,3.67
2018-09-25T08:05:40.449Z,4.43
2018-09-25T08:08:14.209Z,4.40
2018-09-25T08:10:48.167Z,4.33
2018-09-25T08:13:22.859Z,3.50
2018-09-25T08:15:56.625Z,5.37
2018-09-25T08:18:30.710Z,2.90
2018-09-25T08:21:04.458Z,2.23
2018-09-25T08:23:38.511Z,5.10
2018-09-25T08:26:12.826Z,6.03
2018-09-25T08:28:47.247Z,3.83
2018-09-25T08:31:21.063Z,5.30
2018-09-25T08:33:54.848Z,2.63
2018-09-25T08:36:28.587Z,3.97
2018-09-25T08:39:02.734Z,5.40
2018-09-25T08:41:36.897Z,3.07
2018-09-25T08:44:11.019Z,2.53
2018-09-25T08:46:45.503Z,3.20
2018-09-25T08:49:19.511Z,3.23
2018-09-25T08:51:53.640Z,4.23
2018-09-25T08:54:27.383Z,2.43
2018-09-25T08:57:01.431Z,3.63
2018-09-25T08:59:35.128Z,2.07
2018-09-25T09:02:09.106Z,5.03
2018-09-25T09:04:43.464Z,3.20
2018-09-25T09:07:17.156Z,5.30
2018-09-25T09:09:50.978Z,1.23
2018-09-25T09:12:24.852Z,2.13
2018-09-25T09:14:58.920Z,1.40
2018-09-25T09:17:32.846Z,2.20
2018-09-25T09:20:07.270Z,4.93
2018-09-25T09:22:41.541Z,2.20
2018-09-25T09:25:15.419Z,3.30
2018-09-25T09:27:49.253Z,2.13
2018-09-25T09:30:23.022Z,2.97
2018-09-25T09:32:56.699Z,3.53
2018-09-25T09:35:30.581Z,2.00
2018-09-25T09:38:04.767Z,2.97
2018-09-25T09:40:38.728Z,2.37
2018-09-25T09:43:12.644Z,3.57
2018-09-25T09:45:47.453Z,2.77
2018-09-25T09:48:21.379Z,3.40
2018-09-25T09:50:55.474Z,2.43
2018-09-25T09:53:29.286Z,2.73
2018-09-25T09:56:03.509Z,3.67
2018-09-25T09:58:37.640Z,2.60
2018-09-25T10:01:11.917Z,2.20
2018-09-25T10:03:45.967Z,2.50
2018-09-25T10:06:20.031Z,1.43
2018-09-25T10:08:53.814Z,1.63
2018-09-25T10:11:27.784Z,2.33
2018-09-25T10:14:02.184Z,3.20
2018-09-25T10:16:36.579Z,2.07
2018-09-25T10:19:10.597Z,3.20
2018-09-25T10:21:44.477Z,1.93
2018-09-25T10:24:18.875Z,3.13
2018-09-25T10:26:52.711Z,5.60
2018-09-25T10:29:26.800Z,2.20
2018-09-25T10:32:00.661Z,2.70
2018-09-25T10:34:35.168Z,1.20
2018-09-25T10:37:09.290Z,3.17
2018-09-25T10:39:43.137Z,4.57
2018-09-25T10:42:17.083Z,2.60
2018-09-25T10:44:50.967Z,2.13
2018-09-25T10:47:24.839Z,2.03
2018-09-25T10:50:02.197Z,2.93
2018-09-25T10:52:36.166Z,2.40
2018-09-25T10:55:09.879Z,2.37
2018-09-25T10:57:43.775Z,2.27
2018-09-25T11:00:17.647Z,3.10
2018-09-25T11:02:51.589Z,1.30
2018-09-25T11:05:25.766Z,2.37
2018-09-25T11:07:59.496Z,2.33
2018-09-25T11:10:33.394Z,1.27
2018-09-25T11:13:07.368Z,3.67
2018-09-25T11:15:41.280Z,1.67
2018-09-25T11:18:15.286Z,2.93
2018-09-25T11:20:48.960Z,2.93
2018-09-25T11:23:22.685Z,2.77
2018-09-25T11:25:56.940Z,1.60
2018-09-25T11:28:30.740Z,3.07
2018-09-25T11:31:04.641Z,3.83
2018-09-25T11:33:38.316Z,2.73
2018-09-25T11:36:12.397Z,1.10
2018-09-25T11:38:46.283Z,2.87
2018-09-25T11:41:20.159Z,4.60
2018-09-25T11:43:54.010Z,3.63
2018-09-25T11:46:27.891Z,2.87
2018-09-25T11:49:01.671Z,4.20
2018-09-25T11:51:35.602Z,2.13
2018-09-25T11:54:09.491Z,2.50
2018-09-25T11:56:44.831Z,2.20
2018-09-25T11:59:18.700Z,2.20
2018-09-25T12:01:53.079Z,4.40
2018-09-25T12:04:27.031Z,2.00
2018-09-25T12:07:00.860Z,2.43
2018-09-25T12:09:34.727Z,1.60
2018-09-25T12:12:08.669Z,1.30
2018-09-25T12:14:42.506Z,2.23
2018-09-25T12:17:16.279Z,1.37
2018-09-25T12:19:50.637Z,1.30
2018-09-25T12:22:24.909Z,1.67
2018-09-25T12:24:59.068Z,2.60
2018-09-25T12:27:32.851Z,3.17
2018-09-25T12:30:07.372Z,2.57
2018-09-25T12:32:42.470Z,3.57
2018-09-25T12:35:16.444Z,2.73
2018-09-25T12:37:50.129Z,3.40
2018-09-25T12:40:24.058Z,1.47
2018-09-25T12:42:57.930Z,3.40
2018-09-25T12:45:31.803Z,1.00
2018-09-25T12:48:06.113Z,2.53
2018-09-25T12:50:39.985Z,2.37
2018-09-25T12:53:13.994Z,1.73
2018-09-25T12:55:49.823Z,1.00
2018-09-25T12:58:23.813Z,2.60
2018-09-25T13:00:57.634Z,3.73
2018-09-25T13:03:31.402Z,2.60
2018-09-25T13:06:05.572Z,3.97
2018-09-25T13:08:39.638Z,2.17
2018-09-25T13:11:13.842Z,4.27
2018-09-25T13:13:47.760Z,0.70
2018-09-25T13:16:21.795Z,3.90
2018-09-25T13:18:56.085Z,3.60
2018-09-25T13:21:29.918Z,3.23
2018-09-25T13:24:04.007Z,1.23
2018-09-25T13:26:37.906Z,2.57
2018-09-25T13:29:12.087Z,2.57
2018-09-25T13:31:45.976Z,2.50
2018-09-25T13:34:20.360Z,2.90
2018-09-25T13:36:54.640Z,2.40
2018-09-25T13:39:28.528Z,2.83
2018-09-25T13:42:02.916Z,2.53
2018-09-25T13:44:36.728Z,2.67
2018-09-25T13:47:10.787Z,1.87
2018-09-25T13:49:47.000Z,1.03
2018-09-25T13:52:21.031Z,2.93
2018-09-25T13:54:54.822Z,2.23
2018-09-25T13:57:28.634Z,3.67
2018-09-25T14:00:02.529Z,3.70
2018-09-25T14:02:37.050Z,4.43
2018-09-25T14:05:10.784Z,2.47
2018-09-25T14:07:44.605Z,3.13
2018-09-25T14:10:18.326Z,3.70
2018-09-25T14:12:52.245Z,1.20
2018-09-25T14:15:26.203Z,3.37
2018-09-25T14:18:00.708Z,3.50
2018-09-25T14:20:34.628Z,2.40
2018-09-25T14:23:08.417Z,3.03
2018-09-25T14:25:42.148Z,5.67
2018-09-25T14:28:16.240Z,2.07
2018-09-25T14:30:50.191Z,2.20
2018-09-25T14:33:24.099Z,2.50
2018-09-25T14:35:58.240Z,2.27
2018-09-25T14:38:32.596Z,3.17
2018-09-25T14:41:06.596Z,1.73
2018-09-25T14:43:40.379Z,5.93
2018-09-25T14:46:14.857Z,3.63
2018-09-25T14:48:48.953Z,3.67
2018-09-25T14:51:23.052Z,4.00
2018-09-25T14:53:57.099Z,3.27
2018-09-25T14:56:31.245Z,2.80
2018-09-25T14:59:05.442Z,3.97
2018-09-25T15:01:39.301Z,1.87
2018-09-25T15:04:13.261Z,1.60
2018-09-25T15:06:46.995Z,3.47
2018-09-25T15:09:20.833Z,2.10
2018-09-25T15:11:54.743Z,2.73
2018-09-25T15:14:29.678Z,3.13
2018-09-25T15:17:04.058Z,3.27
2018-09-25T15:19:37.983Z,3.60
2018-09-25T15:22:12.290Z,2.57
2018-09-25T15:24:45.902Z,2.37
2018-09-25T15:27:19.848Z,1.93
2018-09-25T15:29:53.902Z,1.63
2018-09-25T15:32:27.840Z,1.33
2018-09-25T15:35:01.780Z,4.07
2018-09-25T15:37:35.601Z,4.17
2018-09-25T15:40:10.843Z,2.33
2018-09-25T15:42:44.628Z,3.03
2018-09-25T15:45:18.531Z,3.53
2018-09-25T15:47:52.461Z,3.97
2018-09-25T15:50:26.289Z,5.83
2018-09-25T15:53:00.148Z,3.23
2018-09-25T15:55:34.141Z,2.93
2018-09-25T15:58:08.356Z,2.50
2018-09-25T16:00:42.437Z,3.60
2018-09-25T16:03:16.314Z,3.80
2018-09-25T16:05:50.255Z,2.93
2018-09-25T16:08:24.007Z,3.43
2018-09-25T16:10:57.722Z,2.73
2018-09-25T16:13:32.354Z,3.60
2018-09-25T16:16:06.279Z,4.37
2018-09-25T16:18:40.100Z,2.57
2018-09-25T16:21:14.038Z,1.50
2018-09-25T16:23:47.874Z,3.27
2018-09-25T16:26:21.675Z,2.57
2018-09-25T16:28:55.470Z,1.73
2018-09-25T16:31:29.521Z,2.37
2018-09-25T16:34:03.430Z,3.73
2018-09-25T16:36:37.371Z,2.80
2018-09-25T16:39:14.650Z,2.73
2018-09-25T16:41:49.153Z,2.03
2018-09-25T16:44:23.169Z,1.87
2018-09-25T16:46:57.034Z,3.33
2018-09-25T16:49:31.059Z,2.47
2018-09-25T16:52:05.077Z,2.70
2018-09-25T16:54:39.178Z,3.93
2018-09-25T16:57:13.444Z,2.20
2018-09-25T16:59:47.471Z,2.43
2018-09-25T17:02:21.698Z,2.90
2018-09-25T17:04:55.385Z,2.47
2018-09-25T17:07:29.438Z,2.40
2018-09-25T17:10:03.315Z,3.50
2018-09-25T17:12:37.511Z,2.57
2018-09-25T17:15:11.718Z,4.27
2018-09-25T17:17:45.512Z,4.40
2018-09-25T17:20:19.300Z,6.73
2018-09-25T17:22:52.998Z,2.23
2018-09-25T17:25:26.763Z,4.73
2018-09-25T17:28:00.612Z,3.43
2018-09-25T17:30:35.007Z,2.90
2018-09-25T17:33:08.686Z,2.27
2018-09-25T17:35:42.732Z,4.50
2018-09-25T17:38:16.783Z,3.77
2018-09-25T17:40:50.643Z,4.60
2018-09-25T17:43:24.369Z,5.57
2018-09-25T17:45:58.152Z,4.43
2018-09-25T17:48:32.022Z,2.30
2018-09-25T17:51:07.397Z,1.50
2018-09-25T17:53:41.523Z,3.03
2018-09-25T17:56:15.364Z,2.87
2018-09-25T17:58:49.535Z,5.97
2018-09-25T18:01:23.354Z,2.50
2018-09-25T18:03:57.426Z,2.20
2018-09-25T18:06:31.306Z,2.70
2018-09-25T18:09:05.155Z,4.10
2018-09-25T18:11:39.121Z,4.20
2018-09-25T18:14:13.024Z,7.60
2018-09-25T18:16:46.961Z,1.87
2018-09-25T18:19:20.780Z,3.30
2018-09-25T18:21:54.701Z,3.00
2018-09-25T18:24:28.541Z,1.83
2018-09-25T18:27:02.335Z,1.63
2018-09-25T18:29:42.870Z,1.67
2018-09-25T18:32:16.687Z,3.63
2018-09-25T18:34:50.504Z,3.33
2018-09-25T18:37:24.587Z,4.80
2018-09-25T18:39:58.749Z,3.33
2018-09-25T18:42:32.531Z,3.40
2018-09-25T18:45:06.725Z,3.00
2018-09-25T18:47:40.656Z,3.37
2018-09-25T18:50:14.646Z,3.90
2018-09-25T18:52:49.981Z,3.10
2018-09-25T18:55:24.840Z,4.00
2018-09-25T18:57:58.775Z,4.37
2018-09-25T19:00:32.856Z,3.97
2018-09-25T19:03:06.826Z,2.73
2018-09-25T19:05:40.947Z,4.07
2018-09-25T19:08:15.644Z,4.17
2018-09-25T19:10:50.300Z,3.30
2018-09-25T19:13:24.401Z,4.20
2018-09-25T19:15:58.692Z,2.47
2018-09-25T19:18:33.471Z,3.20
2018-09-25T19:21:07.578Z,4.60
2018-09-25T19:23:42.042Z,3.07
2018-09-25T19:26:16.525Z,3.00
2018-09-25T19:28:51.420Z,2.80
2018-09-25T19:31:25.441Z,1.63
2018-09-25T19:34:00.348Z,4.30
2018-09-25T19:36:34.456Z,2.47
2018-09-25T19:39:13.362Z,3.27
2018-09-25T19:41:47.350Z,4.50
2018-09-25T19:44:21.615Z,5.50
2018-09-25T19:46:55.615Z,4.40
2018-09-25T19:49:30.918Z,2.83
2018-09-25T19:52:06.038Z,2.00
2018-09-25T19:54:40.278Z,2.27
2018-09-25T19:57:14.386Z,4.40
2018-09-25T19:59:48.616Z,3.57
2018-09-25T20:02:23.664Z,5.63
2018-09-25T20:04:57.791Z,5.23
2018-09-25T20:07:31.921Z,2.37
2018-09-25T20:10:05.802Z,2.70
2018-09-25T20:12:40.165Z,3.27
2018-09-25T20:15:13.992Z,3.63
2018-09-25T20:17:47.996Z,2.53
2018-09-25T20:20:22.115Z,3.40
2018-09-25T20:22:56.058Z,4.27
2018-09-25T20:25:30.022Z,4.10
2018-09-25T20:28:04.067Z,6.67
2018-09-25T20:30:38.199Z,4.57
2018-09-25T20:33:12.164Z,4.50
2018-09-25T20:35:46.181Z,3.07
2018-09-25T20:38:20.225Z,2.90
2018-09-25T20:40:54.229Z,2.27
2018-09-25T20:43:28.138Z,3.03
2018-09-25T20:46:01.918Z,6.40
2018-09-25T20:48:35.805Z,2.87
2018-09-25T20:51:09.865Z,2.77
2018-09-25T20:53:43.973Z,6.07
2018-09-25T20:56:18.018Z,3.27
2018-09-25T20:58:52.096Z,3.17
2018-09-25T21:01:26.347Z,3.80
2018-09-25T21:04:00.291Z,5.43
2018-09-25T21:06:34.921Z,9.77
2018-09-25T21:09:11.020Z,4.80
2018-09-25T21:11:45.480Z,5.93
2018-09-25T21:14:20.839Z,5.07
2018-09-25T21:16:56.016Z,2.80
2018-09-25T21:19:30.317Z,4.43
2018-09-25T21:22:06.097Z,4.77
2018-09-25T21:24:40.257Z,5.13
2018-09-25T21:27:14.190Z,4.57
2018-09-25T21:29:47.963Z,4.27
2018-09-25T21:32:22.528Z,4.10
2018-09-25T21:34:56.333Z,3.90
2018-09-25T21:37:30.208Z,3.30
2018-09-25T21:40:04.055Z,5.20
2018-09-25T21:42:37.996Z,7.17
2018-09-25T21:45:12.332Z,3.97
2018-09-25T21:47:46.230Z,3.03
2018-09-25T21:50:20.321Z,4.07
2018-09-25T21:52:54.237Z,2.90
2018-09-25T21:55:28.237Z,3.40
2018-09-25T21:58:02.082Z,7.27
2018-09-25T22:00:36.221Z,7.27
2018-09-25T22:03:10.157Z,4.33
2018-09-25T22:05:44.596Z,2.53
2018-09-25T22:08:18.811Z,4.13
2018-09-25T22:10:53.023Z,5.13
2018-09-25T22:13:26.906Z,5.63
2018-09-25T22:16:02.095Z,4.87
2018-09-25T22:18:35.986Z,3.67
2018-09-25T22:21:10.382Z,4.30
2018-09-25T22:23:44.479Z,2.57
2018-09-25T22:26:18.534Z,6.70
2018-09-25T22:28:52.547Z,4.97
2018-09-25T22:31:26.705Z,2.37
2018-09-25T22:34:00.616Z,5.80
2018-09-25T22:36:34.700Z,4.63
2018-09-25T22:39:10.866Z,5.20
2018-09-25T22:41:45.690Z,4.30
2018-09-25T22:44:19.464Z,2.50
2018-09-25T22:46:54.494Z,2.47
2018-09-25T22:49:28.372Z,5.03
2018-09-25T22:52:02.230Z,5.10
2018-09-25T22:54:35.989Z,3.83
2018-09-25T22:57:09.982Z,6.57
2018-09-25T22:59:43.787Z,3.27
2018-09-25T23:02:18.501Z,3.33
2018-09-25T23:04:52.493Z,5.97
2018-09-25T23:07:26.394Z,2.67
2018-09-25T23:10:00.041Z,5.00
2018-09-25T23:12:34.007Z,7.47
2018-09-25T23:15:07.829Z,4.20
2018-09-25T23:17:41.910Z,5.33
2018-09-25T23:20:16.022Z,3.60
2018-09-25T23:22:49.648Z,7.40
2018-09-25T23:25:23.498Z,5.33
2018-09-25T23:27:57.237Z,4.13
2018-09-25T23:30:31.118Z,3.73
2018-09-25T23:33:04.816Z,3.80
2018-09-25T23:35:38.947Z,6.37
2018-09-25T23:38:12.869Z,3.70
2018-09-25T23:40:47.351Z,5.07
2018-09-25T23:43:21.135Z,5.33
2018-09-25T23:45:54.017Z,4.10
2018-09-25T23:48:55.483Z,2.87
2018-09-25T23:51:29.531Z,3.40
2018-09-25T23:54:02.565Z,5.53
2018-09-25T23:56:41.297Z,6.77
2018-09-25T23:59:15.384Z,8.33
